sensor_id;sensor_type;location;lat;lon;timestamp;temperature;humidity
22532;DHT22;11432;46.924;7.114;2023-05-07T00:00:33;14.50;99.90
22532;DHT22;11432;46.924;7.114;2023-05-07T00:02:59;14.40;99.90
22532;DHT22;11432;46.924;7.114;2023-05-07T00:05:25;14.30;99.90
22532;DHT22;11432;46.924;7.114;2023-05-07T00:07:51;14.20;99.90
22532;DHT22;11432;46.924;7.114;2023-05-07T00:10:18;14.20;99.90
22532;DHT22;11432;46.924;7.114;2023-05-07T00:12:44;14.10;99.90
22532;DHT22;11432;46.924;7.114;2023-05-07T00:15:10;14.00;99.90
22532;DHT22;11432;46.924;7.114;2023-05-07T00:17:36;14.10;99.90
22532;DHT22;11432;46.924;7.114;2023-05-07T00:20:03;14.10;99.90
22532;DHT22;11432;46.924;7.114;2023-05-07T00:22:30;14.10;99.90
22532;DHT22;11432;46.924;7.114;2023-05-07T00:24:56;14.10;99.90
22532;DHT22;11432;46.924;7.114;2023-05-07T00:27:22;14.10;99.90
22532;DHT22;11432;46.924;7.114;2023-05-07T00:29:48;14.00;99.90
22532;DHT22;11432;46.924;7.114;2023-05-07T00:32:13;14.00;99.90
22532;DHT22;11432;46.924;7.114;2023-05-07T00:34:39;14.00;99.90
22532;DHT22;11432;46.924;7.114;2023-05-07T00:37:05;14.00;99.90
22532;DHT22;11432;46.924;7.114;2023-05-07T00:39:33;14.00;99.90
22532;DHT22;11432;46.924;7.114;2023-05-07T00:41:59;14.00;99.90
22532;DHT22;11432;46.924;7.114;2023-05-07T00:44:26;14.00;99.90
22532;DHT22;11432;46.924;7.114;2023-05-07T00:46:52;13.90;99.90
22532;DHT22;11432;46.924;7.114;2023-05-07T00:49:18;13.90;99.90
22532;DHT22;11432;46.924;7.114;2023-05-07T00:51:45;13.90;99.90
22532;DHT22;11432;46.924;7.114;2023-05-07T00:54:11;13.90;99.90
22532;DHT22;11432;46.924;7.114;2023-05-07T00:56:38;13.80;99.90
22532;DHT22;11432;46.924;7.114;2023-05-07T00:59:05;13.80;99.90
22532;DHT22;11432;46.924;7.114;2023-05-07T01:01:31;13.80;99.90
22532;DHT22;11432;46.924;7.114;2023-05-07T01:03:57;13.70;99.90
22532;DHT22;11432;46.924;7.114;2023-05-07T01:06:24;13.70;99.90
22532;DHT22;11432;46.924;7.114;2023-05-07T01:08:51;13.70;99.90
22532;DHT22;11432;46.924;7.114;2023-05-07T01:11:18;13.70;99.90
22532;DHT22;11432;46.924;7.114;2023-05-07T01:13:46;13.70;99.90
22532;DHT22;11432;46.924;7.114;2023-05-07T01:16:12;13.60;99.90
22532;DHT22;11432;46.924;7.114;2023-05-07T01:18:38;13.60;99.90
22532;DHT22;11432;46.924;7.114;2023-05-07T01:21:04;13.50;99.90
22532;DHT22;11432;46.924;7.114;2023-05-07T01:23:30;13.50;99.90
22532;DHT22;11432;46.924;7.114;2023-05-07T01:25:56;13.50;99.90
22532;DHT22;11432;46.924;7.114;2023-05-07T01:28:22;13.50;99.90
22532;DHT22;11432;46.924;7.114;2023-05-07T01:30:54;13.50;99.90
22532;DHT22;11432;46.924;7.114;2023-05-07T01:33:21;13.40;99.90
22532;DHT22;11432;46.924;7.114;2023-05-07T01:35:49;13.40;99.90
22532;DHT22;11432;46.924;7.114;2023-05-07T01:38:16;13.40;99.90
22532;DHT22;11432;46.924;7.114;2023-05-07T01:40:42;13.30;99.90
22532;DHT22;11432;46.924;7.114;2023-05-07T01:43:09;13.40;99.90
22532;DHT22;11432;46.924;7.114;2023-05-07T01:45:35;13.40;99.90
22532;DHT22;11432;46.924;7.114;2023-05-07T01:48:02;13.40;99.90
22532;DHT22;11432;46.924;7.114;2023-05-07T01:50:29;13.40;99.90
22532;DHT22;11432;46.924;7.114;2023-05-07T01:52:56;13.30;99.90
22532;DHT22;11432;46.924;7.114;2023-05-07T01:55:21;13.30;99.90
22532;DHT22;11432;46.924;7.114;2023-05-07T01:57:47;13.30;99.90
22532;DHT22;11432;46.924;7.114;2023-05-07T02:00:13;13.20;99.90
22532;DHT22;11432;46.924;7.114;2023-05-07T02:02:39;13.20;99.90
22532;DHT22;11432;46.924;7.114;2023-05-07T02:05:05;13.10;99.90
22532;DHT22;11432;46.924;7.114;2023-05-07T02:07:30;13.10;99.90
22532;DHT22;11432;46.924;7.114;2023-05-07T02:09:56;13.10;99.90
22532;DHT22;11432;46.924;7.114;2023-05-07T02:12:22;13.10;99.90
22532;DHT22;11432;46.924;7.114;2023-05-07T02:14:48;13.00;99.90
22532;DHT22;11432;46.924;7.114;2023-05-07T02:17:13;13.00;99.90
22532;DHT22;11432;46.924;7.114;2023-05-07T02:19:39;13.00;99.90
22532;DHT22;11432;46.924;7.114;2023-05-07T02:22:05;13.00;99.90
22532;DHT22;11432;46.924;7.114;2023-05-07T02:24:30;13.00;99.90
22532;DHT22;11432;46.924;7.114;2023-05-07T02:26:56;13.00;99.90
22532;DHT22;11432;46.924;7.114;2023-05-07T02:29:21;13.00;99.90
22532;DHT22;11432;46.924;7.114;2023-05-07T02:31:47;13.00;99.90
22532;DHT22;11432;46.924;7.114;2023-05-07T02:34:19;13.00;99.90
22532;DHT22;11432;46.924;7.114;2023-05-07T02:36:45;12.90;99.90
22532;DHT22;11432;46.924;7.114;2023-05-07T02:39:12;12.90;99.90
22532;DHT22;11432;46.924;7.114;2023-05-07T02:41:38;12.80;99.90
22532;DHT22;11432;46.924;7.114;2023-05-07T02:44:04;12.80;99.90
22532;DHT22;11432;46.924;7.114;2023-05-07T02:46:30;12.70;99.90
22532;DHT22;11432;46.924;7.114;2023-05-07T02:48:55;12.70;99.90
22532;DHT22;11432;46.924;7.114;2023-05-07T02:51:22;12.70;99.90
22532;DHT22;11432;46.924;7.114;2023-05-07T02:53:48;12.70;99.90
22532;DHT22;11432;46.924;7.114;2023-05-07T02:56:13;12.70;99.90
22532;DHT22;11432;46.924;7.114;2023-05-07T02:58:39;12.70;99.90
22532;DHT22;11432;46.924;7.114;2023-05-07T03:01:08;12.70;99.90
22532;DHT22;11432;46.924;7.114;2023-05-07T03:03:35;12.70;99.90
22532;DHT22;11432;46.924;7.114;2023-05-07T03:06:00;12.70;99.90
22532;DHT22;11432;46.924;7.114;2023-05-07T03:08:26;12.60;99.90
22532;DHT22;11432;46.924;7.114;2023-05-07T03:10:52;12.60;99.90
22532;DHT22;11432;46.924;7.114;2023-05-07T03:13:18;12.60;99.90
22532;DHT22;11432;46.924;7.114;2023-05-07T03:15:43;12.70;99.90
22532;DHT22;11432;46.924;7.114;2023-05-07T03:18:09;12.70;99.90
22532;DHT22;11432;46.924;7.114;2023-05-07T03:20:34;12.70;99.90
22532;DHT22;11432;46.924;7.114;2023-05-07T03:23:01;12.70;99.90
22532;DHT22;11432;46.924;7.114;2023-05-07T03:25:27;12.70;99.90
22532;DHT22;11432;46.924;7.114;2023-05-07T03:27:53;12.70;99.90
22532;DHT22;11432;46.924;7.114;2023-05-07T03:30:19;12.70;99.90
22532;DHT22;11432;46.924;7.114;2023-05-07T03:32:45;12.70;99.90
22532;DHT22;11432;46.924;7.114;2023-05-07T03:35:11;12.70;99.90
22532;DHT22;11432;46.924;7.114;2023-05-07T03:37:38;12.70;99.90
22532;DHT22;11432;46.924;7.114;2023-05-07T03:40:04;12.60;99.90
22532;DHT22;11432;46.924;7.114;2023-05-07T03:42:30;12.60;99.90
22532;DHT22;11432;46.924;7.114;2023-05-07T03:44:56;12.60;99.90
22532;DHT22;11432;46.924;7.114;2023-05-07T03:47:21;12.50;99.90
22532;DHT22;11432;46.924;7.114;2023-05-07T03:49:47;12.50;99.90
22532;DHT22;11432;46.924;7.114;2023-05-07T03:52:14;12.50;99.90
22532;DHT22;11432;46.924;7.114;2023-05-07T03:54:40;12.50;99.90
22532;DHT22;11432;46.924;7.114;2023-05-07T03:57:05;12.40;99.90
22532;DHT22;11432;46.924;7.114;2023-05-07T03:59:31;12.50;99.90
22532;DHT22;11432;46.924;7.114;2023-05-07T04:01:56;12.50;99.90
22532;DHT22;11432;46.924;7.114;2023-05-07T04:04:22;12.60;99.90
22532;DHT22;11432;46.924;7.114;2023-05-07T04:06:48;12.60;99.90
22532;DHT22;11432;46.924;7.114;2023-05-07T04:09:13;12.70;99.90
22532;DHT22;11432;46.924;7.114;2023-05-07T04:11:39;12.70;99.90
22532;DHT22;11432;46.924;7.114;2023-05-07T04:14:07;12.70;99.90
22532;DHT22;11432;46.924;7.114;2023-05-07T04:16:34;12.70;99.90
22532;DHT22;11432;46.924;7.114;2023-05-07T04:19:00;12.70;99.90
22532;DHT22;11432;46.924;7.114;2023-05-07T04:21:26;12.70;99.90
22532;DHT22;11432;46.924;7.114;2023-05-07T04:23:51;12.60;99.90
22532;DHT22;11432;46.924;7.114;2023-05-07T04:26:17;12.60;99.90
22532;DHT22;11432;46.924;7.114;2023-05-07T04:28:43;12.70;99.90
22532;DHT22;11432;46.924;7.114;2023-05-07T04:31:08;12.60;99.90
22532;DHT22;11432;46.924;7.114;2023-05-07T04:33:34;12.60;99.90
22532;DHT22;11432;46.924;7.114;2023-05-07T04:36:03;12.50;99.90
22532;DHT22;11432;46.924;7.114;2023-05-07T04:38:30;12.50;99.90
22532;DHT22;11432;46.924;7.114;2023-05-07T04:40:57;12.50;99.90
22532;DHT22;11432;46.924;7.114;2023-05-07T04:43:23;12.50;99.90
22532;DHT22;11432;46.924;7.114;2023-05-07T04:45:50;12.60;99.90
22532;DHT22;11432;46.924;7.114;2023-05-07T04:48:16;12.60;99.90
22532;DHT22;11432;46.924;7.114;2023-05-07T04:50:46;12.70;99.90
22532;DHT22;11432;46.924;7.114;2023-05-07T04:53:12;12.70;99.90
22532;DHT22;11432;46.924;7.114;2023-05-07T04:55:37;12.90;99.90
22532;DHT22;11432;46.924;7.114;2023-05-07T04:58:03;12.90;99.90
22532;DHT22;11432;46.924;7.114;2023-05-07T05:00:30;13.00;99.90
22532;DHT22;11432;46.924;7.114;2023-05-07T05:02:55;13.10;99.90
22532;DHT22;11432;46.924;7.114;2023-05-07T05:05:21;13.20;99.90
22532;DHT22;11432;46.924;7.114;2023-05-07T05:07:47;13.30;99.90
22532;DHT22;11432;46.924;7.114;2023-05-07T05:10:12;13.40;99.90
22532;DHT22;11432;46.924;7.114;2023-05-07T05:12:38;13.40;99.90
22532;DHT22;11432;46.924;7.114;2023-05-07T05:15:05;13.30;99.90
22532;DHT22;11432;46.924;7.114;2023-05-07T05:17:30;13.30;99.90
22532;DHT22;11432;46.924;7.114;2023-05-07T05:19:56;13.30;99.90
22532;DHT22;11432;46.924;7.114;2023-05-07T05:22:22;13.30;99.90
22532;DHT22;11432;46.924;7.114;2023-05-07T05:24:47;13.40;99.90
22532;DHT22;11432;46.924;7.114;2023-05-07T05:27:13;13.50;99.90
22532;DHT22;11432;46.924;7.114;2023-05-07T05:29:38;13.50;99.90
22532;DHT22;11432;46.924;7.114;2023-05-07T05:32:04;13.50;99.90
22532;DHT22;11432;46.924;7.114;2023-05-07T05:34:30;13.60;99.90
22532;DHT22;11432;46.924;7.114;2023-05-07T05:36:55;13.60;99.90
22532;DHT22;11432;46.924;7.114;2023-05-07T05:39:21;13.60;99.90
22532;DHT22;11432;46.924;7.114;2023-05-07T05:41:48;13.60;99.90
22532;DHT22;11432;46.924;7.114;2023-05-07T05:44:14;13.70;99.90
22532;DHT22;11432;46.924;7.114;2023-05-07T05:46:39;13.80;99.90
22532;DHT22;11432;46.924;7.114;2023-05-07T05:49:05;13.90;99.90
22532;DHT22;11432;46.924;7.114;2023-05-07T05:51:31;14.00;99.90
22532;DHT22;11432;46.924;7.114;2023-05-07T05:53:56;14.20;99.90
22532;DHT22;11432;46.924;7.114;2023-05-07T05:56:22;14.30;99.90
22532;DHT22;11432;46.924;7.114;2023-05-07T05:58:48;14.40;99.90
22532;DHT22;11432;46.924;7.114;2023-05-07T06:01:14;14.50;99.90
22532;DHT22;11432;46.924;7.114;2023-05-07T06:03:40;14.60;99.90
22532;DHT22;11432;46.924;7.114;2023-05-07T06:06:05;14.80;99.90
22532;DHT22;11432;46.924;7.114;2023-05-07T06:08:31;14.80;99.90
22532;DHT22;11432;46.924;7.114;2023-05-07T06:10:57;15.00;99.90
22532;DHT22;11432;46.924;7.114;2023-05-07T06:13:23;15.10;99.90
22532;DHT22;11432;46.924;7.114;2023-05-07T06:15:49;15.30;99.90
22532;DHT22;11432;46.924;7.114;2023-05-07T06:18:14;15.40;99.90
22532;DHT22;11432;46.924;7.114;2023-05-07T06:20:40;15.50;99.90
22532;DHT22;11432;46.924;7.114;2023-05-07T06:23:06;15.60;99.90
22532;DHT22;11432;46.924;7.114;2023-05-07T06:25:31;15.50;99.90
22532;DHT22;11432;46.924;7.114;2023-05-07T06:27:57;15.10;99.90
22532;DHT22;11432;46.924;7.114;2023-05-07T06:30:23;14.80;99.90
22532;DHT22;11432;46.924;7.114;2023-05-07T06:32:48;14.70;99.90
22532;DHT22;11432;46.924;7.114;2023-05-07T06:35:14;14.60;99.90
22532;DHT22;11432;46.924;7.114;2023-05-07T06:37:41;14.70;99.90
22532;DHT22;11432;46.924;7.114;2023-05-07T06:40:08;14.70;99.90
22532;DHT22;11432;46.924;7.114;2023-05-07T06:42:35;14.90;99.90
22532;DHT22;11432;46.924;7.114;2023-05-07T06:45:01;15.00;99.90
22532;DHT22;11432;46.924;7.114;2023-05-07T06:47:28;15.10;99.90
22532;DHT22;11432;46.924;7.114;2023-05-07T06:49:53;15.20;99.90
22532;DHT22;11432;46.924;7.114;2023-05-07T06:52:19;15.40;99.90
22532;DHT22;11432;46.924;7.114;2023-05-07T06:54:45;15.60;99.90
22532;DHT22;11432;46.924;7.114;2023-05-07T06:57:10;15.60;99.90
22532;DHT22;11432;46.924;7.114;2023-05-07T06:59:36;15.80;99.90
22532;DHT22;11432;46.924;7.114;2023-05-07T07:02:02;15.80;99.90
22532;DHT22;11432;46.924;7.114;2023-05-07T07:04:27;16.00;99.90
22532;DHT22;11432;46.924;7.114;2023-05-07T07:06:53;16.00;99.90
22532;DHT22;11432;46.924;7.114;2023-05-07T07:09:19;16.10;99.90
22532;DHT22;11432;46.924;7.114;2023-05-07T07:11:45;16.10;99.90
22532;DHT22;11432;46.924;7.114;2023-05-07T07:14:10;16.00;99.90
22532;DHT22;11432;46.924;7.114;2023-05-07T07:16:36;15.90;99.90
22532;DHT22;11432;46.924;7.114;2023-05-07T07:19:02;15.90;99.90
22532;DHT22;11432;46.924;7.114;2023-05-07T07:21:27;16.00;99.90
22532;DHT22;11432;46.924;7.114;2023-05-07T07:23:53;16.00;99.90
22532;DHT22;11432;46.924;7.114;2023-05-07T07:26:18;16.10;99.90
22532;DHT22;11432;46.924;7.114;2023-05-07T07:28:45;16.20;99.90
22532;DHT22;11432;46.924;7.114;2023-05-07T07:31:11;16.10;99.90
22532;DHT22;11432;46.924;7.114;2023-05-07T07:33:37;16.10;99.90
22532;DHT22;11432;46.924;7.114;2023-05-07T07:36:02;16.20;99.90
22532;DHT22;11432;46.924;7.114;2023-05-07T07:38:28;16.20;99.90
22532;DHT22;11432;46.924;7.114;2023-05-07T07:40:54;16.30;99.90
22532;DHT22;11432;46.924;7.114;2023-05-07T07:43:20;16.40;99.90
22532;DHT22;11432;46.924;7.114;2023-05-07T07:45:45;16.50;99.90
22532;DHT22;11432;46.924;7.114;2023-05-07T07:48:11;16.60;99.90
22532;DHT22;11432;46.924;7.114;2023-05-07T07:50:37;16.60;99.90
22532;DHT22;11432;46.924;7.114;2023-05-07T07:53:03;16.70;99.90
22532;DHT22;11432;46.924;7.114;2023-05-07T07:55:28;16.90;99.90
22532;DHT22;11432;46.924;7.114;2023-05-07T07:57:54;17.00;99.90
22532;DHT22;11432;46.924;7.114;2023-05-07T08:00:20;17.20;99.90
22532;DHT22;11432;46.924;7.114;2023-05-07T08:02:46;17.40;99.90
22532;DHT22;11432;46.924;7.114;2023-05-07T08:05:11;17.70;99.90
22532;DHT22;11432;46.924;7.114;2023-05-07T08:07:37;17.70;99.90
22532;DHT22;11432;46.924;7.114;2023-05-07T08:10:03;18.00;99.90
22532;DHT22;11432;46.924;7.114;2023-05-07T08:12:29;18.10;99.90
22532;DHT22;11432;46.924;7.114;2023-05-07T08:14:55;18.30;99.90
22532;DHT22;11432;46.924;7.114;2023-05-07T08:17:20;18.30;99.90
22532;DHT22;11432;46.924;7.114;2023-05-07T08:19:48;17.80;99.90
22532;DHT22;11432;46.924;7.114;2023-05-07T08:22:13;17.80;99.60
22532;DHT22;11432;46.924;7.114;2023-05-07T08:24:39;17.90;97.30
22532;DHT22;11432;46.924;7.114;2023-05-07T08:27:05;18.00;99.90
22532;DHT22;11432;46.924;7.114;2023-05-07T08:29:31;18.10;99.90
22532;DHT22;11432;46.924;7.114;2023-05-07T08:31:56;18.20;57.10
22532;DHT22;11432;46.924;7.114;2023-05-07T08:34:22;18.00;4.90
22532;DHT22;11432;46.924;7.114;2023-05-07T08:36:48;17.90;1.00
22532;DHT22;11432;46.924;7.114;2023-05-07T08:39:17;17.80;14.50
22532;DHT22;11432;46.924;7.114;2023-05-07T08:41:46;17.60;1.00
22532;DHT22;11432;46.924;7.114;2023-05-07T08:44:13;17.50;1.00
22532;DHT22;11432;46.924;7.114;2023-05-07T08:46:39;17.50;1.00
22532;DHT22;11432;46.924;7.114;2023-05-07T08:49:07;17.70;19.80
22532;DHT22;11432;46.924;7.114;2023-05-07T08:51:33;17.90;26.50
22532;DHT22;11432;46.924;7.114;2023-05-07T08:53:59;18.00;28.50
22532;DHT22;11432;46.924;7.114;2023-05-07T08:56:26;18.10;99.90
22532;DHT22;11432;46.924;7.114;2023-05-07T08:58:52;18.30;99.90
22532;DHT22;11432;46.924;7.114;2023-05-07T09:01:21;18.60;99.90
22532;DHT22;11432;46.924;7.114;2023-05-07T09:03:47;18.50;99.90
22532;DHT22;11432;46.924;7.114;2023-05-07T09:06:13;18.40;99.90
22532;DHT22;11432;46.924;7.114;2023-05-07T09:08:39;18.40;98.00
22532;DHT22;11432;46.924;7.114;2023-05-07T09:11:05;18.30;96.10
22532;DHT22;11432;46.924;7.114;2023-05-07T09:13:31;18.10;91.00
22532;DHT22;11432;46.924;7.114;2023-05-07T09:15:56;18.20;78.80
22532;DHT22;11432;46.924;7.114;2023-05-07T09:18:25;18.30;74.50
22532;DHT22;11432;46.924;7.114;2023-05-07T09:20:51;18.50;67.80
22532;DHT22;11432;46.924;7.114;2023-05-07T09:23:17;18.60;91.10
22532;DHT22;11432;46.924;7.114;2023-05-07T09:25:42;18.80;95.90
22532;DHT22;11432;46.924;7.114;2023-05-07T09:28:08;18.80;94.80
22532;DHT22;11432;46.924;7.114;2023-05-07T09:30:36;19.00;91.10
22532;DHT22;11432;46.924;7.114;2023-05-07T09:33:03;18.90;88.10
22532;DHT22;11432;46.924;7.114;2023-05-07T09:35:29;18.90;87.10
22532;DHT22;11432;46.924;7.114;2023-05-07T09:37:57;18.80;65.30
22532;DHT22;11432;46.924;7.114;2023-05-07T09:40:24;18.70;44.30
22532;DHT22;11432;46.924;7.114;2023-05-07T09:42:50;18.70;50.60
22532;DHT22;11432;46.924;7.114;2023-05-07T09:45:24;18.80;65.20
22532;DHT22;11432;46.924;7.114;2023-05-07T09:47:54;18.80;55.40
22532;DHT22;11432;46.924;7.114;2023-05-07T09:50:22;19.10;21.20
22532;DHT22;11432;46.924;7.114;2023-05-07T09:52:51;19.40;83.10
22532;DHT22;11432;46.924;7.114;2023-05-07T09:55:17;19.60;43.60
22532;DHT22;11432;46.924;7.114;2023-05-07T09:57:44;19.60;95.20
22532;DHT22;11432;46.924;7.114;2023-05-07T10:00:10;19.70;85.00
22532;DHT22;11432;46.924;7.114;2023-05-07T10:02:37;19.70;99.90
22532;DHT22;11432;46.924;7.114;2023-05-07T10:05:12;19.70;99.90
22532;DHT22;11432;46.924;7.114;2023-05-07T10:07:38;19.90;99.90
22532;DHT22;11432;46.924;7.114;2023-05-07T10:10:04;19.90;99.90
22532;DHT22;11432;46.924;7.114;2023-05-07T10:12:30;19.80;99.90
22532;DHT22;11432;46.924;7.114;2023-05-07T10:15:03;19.60;99.90
22532;DHT22;11432;46.924;7.114;2023-05-07T10:17:29;19.50;99.90
22532;DHT22;11432;46.924;7.114;2023-05-07T10:19:55;19.60;99.90
22532;DHT22;11432;46.924;7.114;2023-05-07T10:22:22;19.80;99.90
22532;DHT22;11432;46.924;7.114;2023-05-07T10:24:49;19.70;99.90
22532;DHT22;11432;46.924;7.114;2023-05-07T10:27:17;19.80;99.90
22532;DHT22;11432;46.924;7.114;2023-05-07T10:32:38;19.70;99.90
22532;DHT22;11432;46.924;7.114;2023-05-07T10:35:09;19.80;99.90
22532;DHT22;11432;46.924;7.114;2023-05-07T10:37:36;20.10;99.90
22532;DHT22;11432;46.924;7.114;2023-05-07T10:40:02;20.10;99.90
22532;DHT22;11432;46.924;7.114;2023-05-07T10:42:28;20.30;99.90
22532;DHT22;11432;46.924;7.114;2023-05-07T10:44:54;20.30;99.90
22532;DHT22;11432;46.924;7.114;2023-05-07T10:47:19;20.10;99.90
22532;DHT22;11432;46.924;7.114;2023-05-07T10:52:18;20.00;99.90
22532;DHT22;11432;46.924;7.114;2023-05-07T10:54:45;20.00;95.80
22532;DHT22;11432;46.924;7.114;2023-05-07T10:59:58;20.30;99.90
22532;DHT22;11432;46.924;7.114;2023-05-07T11:05:25;20.60;99.90
22532;DHT22;11432;46.924;7.114;2023-05-07T11:07:58;20.90;99.90
22532;DHT22;11432;46.924;7.114;2023-05-07T11:10:48;21.00;99.90
22532;DHT22;11432;46.924;7.114;2023-05-07T11:13:14;21.10;99.90
22532;DHT22;11432;46.924;7.114;2023-05-07T11:15:41;21.30;99.90
22532;DHT22;11432;46.924;7.114;2023-05-07T11:18:09;21.50;99.90
22532;DHT22;11432;46.924;7.114;2023-05-07T11:20:46;21.50;99.90
22532;DHT22;11432;46.924;7.114;2023-05-07T11:26:00;21.10;99.90
22532;DHT22;11432;46.924;7.114;2023-05-07T11:28:28;21.00;99.90
22532;DHT22;11432;46.924;7.114;2023-05-07T11:30:55;21.30;99.90
22532;DHT22;11432;46.924;7.114;2023-05-07T11:33:22;21.20;99.90
22532;DHT22;11432;46.924;7.114;2023-05-07T11:35:48;21.70;99.90
22532;DHT22;11432;46.924;7.114;2023-05-07T11:38:13;21.90;99.90
22532;DHT22;11432;46.924;7.114;2023-05-07T11:40:59;22.00;99.90
22532;DHT22;11432;46.924;7.114;2023-05-07T11:43:26;21.90;99.90
22532;DHT22;11432;46.924;7.114;2023-05-07T11:45:52;21.60;99.90
22532;DHT22;11432;46.924;7.114;2023-05-07T11:48:18;21.60;99.90
22532;DHT22;11432;46.924;7.114;2023-05-07T11:51:12;22.10;99.90
22532;DHT22;11432;46.924;7.114;2023-05-07T11:53:43;22.30;99.90
22532;DHT22;11432;46.924;7.114;2023-05-07T11:56:11;22.70;99.90
22532;DHT22;11432;46.924;7.114;2023-05-07T11:58:37;22.50;99.90
22532;DHT22;11432;46.924;7.114;2023-05-07T12:01:03;22.00;99.90
22532;DHT22;11432;46.924;7.114;2023-05-07T12:03:29;21.60;99.90
22532;DHT22;11432;46.924;7.114;2023-05-07T12:05:55;21.40;99.90
22532;DHT22;11432;46.924;7.114;2023-05-07T12:08:21;21.20;99.90
22532;DHT22;11432;46.924;7.114;2023-05-07T12:10:49;21.50;99.90
22532;DHT22;11432;46.924;7.114;2023-05-07T12:13:16;21.30;99.90
22532;DHT22;11432;46.924;7.114;2023-05-07T12:15:42;21.50;99.90
22532;DHT22;11432;46.924;7.114;2023-05-07T12:18:08;22.00;99.90
22532;DHT22;11432;46.924;7.114;2023-05-07T12:20:35;22.20;99.90
22532;DHT22;11432;46.924;7.114;2023-05-07T12:23:02;22.10;99.90
22532;DHT22;11432;46.924;7.114;2023-05-07T12:25:38;22.20;99.90
22532;DHT22;11432;46.924;7.114;2023-05-07T12:28:07;22.90;99.90
22532;DHT22;11432;46.924;7.114;2023-05-07T12:30:37;23.20;99.90
22532;DHT22;11432;46.924;7.114;2023-05-07T12:33:02;23.40;99.90
22532;DHT22;11432;46.924;7.114;2023-05-07T12:35:32;24.10;99.90
22532;DHT22;11432;46.924;7.114;2023-05-07T12:38:01;23.30;99.90
22532;DHT22;11432;46.924;7.114;2023-05-07T12:40:39;23.80;99.90
22532;DHT22;11432;46.924;7.114;2023-05-07T12:43:05;24.00;99.90
22532;DHT22;11432;46.924;7.114;2023-05-07T12:45:30;23.50;99.90
22532;DHT22;11432;46.924;7.114;2023-05-07T12:47:57;22.90;99.90
22532;DHT22;11432;46.924;7.114;2023-05-07T12:50:30;22.80;99.90
22532;DHT22;11432;46.924;7.114;2023-05-07T12:52:56;23.20;99.90
22532;DHT22;11432;46.924;7.114;2023-05-07T12:55:21;23.10;99.90
22532;DHT22;11432;46.924;7.114;2023-05-07T12:57:49;22.90;99.90
22532;DHT22;11432;46.924;7.114;2023-05-07T13:00:17;22.70;99.90
22532;DHT22;11432;46.924;7.114;2023-05-07T13:02:43;22.20;99.90
22532;DHT22;11432;46.924;7.114;2023-05-07T13:05:12;21.70;99.90
22532;DHT22;11432;46.924;7.114;2023-05-07T13:07:39;21.50;99.90
22532;DHT22;11432;46.924;7.114;2023-05-07T13:10:06;21.30;99.90
22532;DHT22;11432;46.924;7.114;2023-05-07T13:12:32;20.90;99.90
22532;DHT22;11432;46.924;7.114;2023-05-07T13:14:57;20.60;99.90
22532;DHT22;11432;46.924;7.114;2023-05-07T13:17:24;20.40;99.90
22532;DHT22;11432;46.924;7.114;2023-05-07T13:19:50;20.20;99.90
22532;DHT22;11432;46.924;7.114;2023-05-07T13:22:15;20.00;99.90
22532;DHT22;11432;46.924;7.114;2023-05-07T13:24:41;19.90;99.90
22532;DHT22;11432;46.924;7.114;2023-05-07T13:27:08;19.90;99.90
22532;DHT22;11432;46.924;7.114;2023-05-07T13:29:34;20.00;1.00
22532;DHT22;11432;46.924;7.114;2023-05-07T13:31:59;20.10;1.00
22532;DHT22;11432;46.924;7.114;2023-05-07T13:34:25;20.00;1.00
22532;DHT22;11432;46.924;7.114;2023-05-07T13:36:51;19.90;1.00
22532;DHT22;11432;46.924;7.114;2023-05-07T13:39:16;19.90;1.00
22532;DHT22;11432;46.924;7.114;2023-05-07T13:41:42;19.90;9.50
22532;DHT22;11432;46.924;7.114;2023-05-07T13:44:07;19.70;24.50
22532;DHT22;11432;46.924;7.114;2023-05-07T13:46:33;19.60;27.20
22532;DHT22;11432;46.924;7.114;2023-05-07T13:48:59;19.40;19.80
22532;DHT22;11432;46.924;7.114;2023-05-07T13:51:24;19.40;2.30
22532;DHT22;11432;46.924;7.114;2023-05-07T13:53:51;19.40;1.00
22532;DHT22;11432;46.924;7.114;2023-05-07T13:56:17;19.40;1.00
22532;DHT22;11432;46.924;7.114;2023-05-07T13:58:43;19.20;1.00
22532;DHT22;11432;46.924;7.114;2023-05-07T14:01:09;19.10;1.00
22532;DHT22;11432;46.924;7.114;2023-05-07T14:03:34;19.00;1.00
22532;DHT22;11432;46.924;7.114;2023-05-07T14:06:03;18.90;1.00
22532;DHT22;11432;46.924;7.114;2023-05-07T14:08:28;18.90;1.00
22532;DHT22;11432;46.924;7.114;2023-05-07T14:10:55;18.90;1.00
22532;DHT22;11432;46.924;7.114;2023-05-07T14:13:20;18.90;1.00
22532;DHT22;11432;46.924;7.114;2023-05-07T14:15:46;18.80;1.00
22532;DHT22;11432;46.924;7.114;2023-05-07T14:18:13;18.80;1.00
22532;DHT22;11432;46.924;7.114;2023-05-07T14:20:39;18.80;1.00
22532;DHT22;11432;46.924;7.114;2023-05-07T14:23:05;18.80;1.00
22532;DHT22;11432;46.924;7.114;2023-05-07T14:25:30;18.80;1.00
22532;DHT22;11432;46.924;7.114;2023-05-07T14:27:56;18.80;1.00
22532;DHT22;11432;46.924;7.114;2023-05-07T14:30:21;18.80;1.00
22532;DHT22;11432;46.924;7.114;2023-05-07T14:32:49;18.80;1.00
22532;DHT22;11432;46.924;7.114;2023-05-07T14:35:15;18.80;1.00
22532;DHT22;11432;46.924;7.114;2023-05-07T14:37:41;18.70;1.00
22532;DHT22;11432;46.924;7.114;2023-05-07T14:40:07;18.80;1.00
22532;DHT22;11432;46.924;7.114;2023-05-07T14:42:33;18.80;1.00
22532;DHT22;11432;46.924;7.114;2023-05-07T14:44:58;18.60;1.00
22532;DHT22;11432;46.924;7.114;2023-05-07T14:47:24;18.50;1.00
22532;DHT22;11432;46.924;7.114;2023-05-07T14:49:49;18.10;1.00
22532;DHT22;11432;46.924;7.114;2023-05-07T14:52:15;17.90;1.00
22532;DHT22;11432;46.924;7.114;2023-05-07T14:54:41;17.70;4.80
22532;DHT22;11432;46.924;7.114;2023-05-07T14:57:09;17.50;5.30
22532;DHT22;11432;46.924;7.114;2023-05-07T14:59:35;17.30;15.90
22532;DHT22;11432;46.924;7.114;2023-05-07T15:02:01;17.30;54.60
22532;DHT22;11432;46.924;7.114;2023-05-07T15:04:26;17.30;74.50
22532;DHT22;11432;46.924;7.114;2023-05-07T15:06:52;17.30;99.90
22532;DHT22;11432;46.924;7.114;2023-05-07T15:09:19;17.50;99.90
22532;DHT22;11432;46.924;7.114;2023-05-07T15:11:45;17.40;99.90
22532;DHT22;11432;46.924;7.114;2023-05-07T15:14:10;17.50;99.90
22532;DHT22;11432;46.924;7.114;2023-05-07T15:16:36;17.60;99.90
22532;DHT22;11432;46.924;7.114;2023-05-07T15:19:02;17.60;88.00
22532;DHT22;11432;46.924;7.114;2023-05-07T15:21:27;17.60;99.90
22532;DHT22;11432;46.924;7.114;2023-05-07T15:23:53;17.60;99.90
22532;DHT22;11432;46.924;7.114;2023-05-07T15:26:19;17.70;99.90
22532;DHT22;11432;46.924;7.114;2023-05-07T15:28:45;17.60;99.90
22532;DHT22;11432;46.924;7.114;2023-05-07T15:31:11;17.50;99.90
22532;DHT22;11432;46.924;7.114;2023-05-07T15:33:37;17.60;99.90
22532;DHT22;11432;46.924;7.114;2023-05-07T15:36:02;17.50;99.90
22532;DHT22;11432;46.924;7.114;2023-05-07T15:38:29;17.40;99.90
22532;DHT22;11432;46.924;7.114;2023-05-07T15:40:54;17.30;99.90